createdAt,value
2022-08-02T00:00:15.006Z,48.58
2022-08-02T00:02:43.549Z,48.60
2022-08-02T00:05:11.516Z,48.87
2022-08-02T00:07:41.160Z,49.28
2022-08-02T00:10:10.871Z,49.54
2022-08-02T00:12:39.040Z,49.40
2022-08-02T00:15:08.211Z,49.19
2022-08-02T00:17:35.853Z,49.18
2022-08-02T00:20:04.541Z,49.21
2022-08-02T00:22:32.451Z,49.41
2022-08-02T00:25:00.053Z,49.43
2022-08-02T00:27:27.441Z,49.92
2022-08-02T00:29:55.362Z,49.88
2022-08-02T00:32:23.427Z,50.21
2022-08-02T00:34:51.302Z,50.31
2022-08-02T00:37:18.670Z,50.01
2022-08-02T00:39:46.271Z,50.08
2022-08-02T00:42:16.703Z,50.37
2022-08-02T00:44:44.099Z,50.36
2022-08-02T00:47:13.948Z,50.66
2022-08-02T00:49:47.482Z,50.34
2022-08-02T00:52:15.433Z,50.16
2022-08-02T00:54:42.859Z,50.12
2022-08-02T00:57:10.214Z,50.12
2022-08-02T00:59:37.802Z,49.95
2022-08-02T01:02:05.163Z,49.71
2022-08-02T01:04:32.610Z,50.43
2022-08-02T01:07:01.213Z,50.50
2022-08-02T01:09:28.568Z,50.41
2022-08-02T01:11:56.153Z,50.32
2022-08-02T01:14:25.323Z,50.67
2022-08-02T01:17:01.468Z,50.86
2022-08-02T01:19:52.163Z,50.50
2022-08-02T01:23:00.079Z,50.42
2022-08-02T01:25:38.572Z,50.76
2022-08-02T01:28:20.917Z,51.26
2022-08-02T01:30:57.585Z,50.88
2022-08-02T01:33:28.465Z,50.85
2022-08-02T01:35:56.963Z,50.92
2022-08-02T01:38:31.109Z,51.07
2022-08-02T01:40:59.140Z,50.91
2022-08-02T01:43:28.526Z,50.84
2022-08-02T01:45:56.797Z,50.99
2022-08-02T01:48:26.768Z,51.23
2022-08-02T01:50:54.429Z,51.22
2022-08-02T01:53:22.502Z,51.31
2022-08-02T01:55:57.711Z,51.71
2022-08-02T01:58:31.762Z,51.76
2022-08-02T02:01:00.087Z,51.97
2022-08-02T02:03:29.726Z,51.97
2022-08-02T02:05:58.785Z,52.01
2022-08-02T02:08:32.862Z,52.24
2022-08-02T02:12:09.351Z,52.26
2022-08-02T02:13:49.567Z,52.36
2022-08-02T02:16:17.474Z,52.26
2022-08-02T02:18:45.112Z,52.49
2022-08-02T02:21:12.811Z,52.47
2022-08-02T02:23:40.818Z,52.88
2022-08-02T02:26:11.520Z,52.92
2022-08-02T02:28:41.228Z,52.71
2022-08-02T02:31:10.539Z,53.04
2022-08-02T02:33:47.089Z,53.18
2022-08-02T02:36:16.963Z,53.19
2022-08-02T02:38:45.458Z,53.35
2022-08-02T02:41:13.091Z,53.42
2022-08-02T02:43:41.650Z,53.41
2022-08-02T02:46:10.298Z,53.36
2022-08-02T02:48:37.978Z,53.30
2022-08-02T02:51:08.165Z,53.69
2022-08-02T02:54:32.903Z,53.93
2022-08-02T02:56:30.904Z,54.66
2022-08-02T02:59:00.621Z,54.48
2022-08-02T03:01:56.264Z,54.39
2022-08-02T03:04:16.001Z,54.28
2022-08-02T03:06:43.424Z,54.31
2022-08-02T03:09:11.581Z,54.12
2022-08-02T03:11:39.810Z,54.03
2022-08-02T03:14:10.934Z,54.08
2022-08-02T03:16:52.179Z,54.29
2022-08-02T03:19:21.375Z,54.37
2022-08-02T03:21:56.572Z,54.80
2022-08-02T03:24:28.031Z,54.51
2022-08-02T03:26:56.175Z,54.41
2022-08-02T03:29:23.518Z,54.47
2022-08-02T03:31:51.042Z,54.37
2022-08-02T03:34:18.748Z,54.42
2022-08-02T03:36:48.584Z,54.24
2022-08-02T03:39:16.887Z,54.12
2022-08-02T03:41:44.535Z,54.47
2022-08-02T03:44:12.607Z,54.44
2022-08-02T03:46:40.882Z,54.71
2022-08-02T03:49:09.427Z,54.92
2022-08-02T03:51:37.041Z,54.93
2022-08-02T03:54:04.492Z,54.64
2022-08-02T03:56:32.124Z,55.05
2022-08-02T03:59:07.799Z,54.86
2022-08-02T04:01:35.511Z,54.93
2022-08-02T04:04:03.196Z,54.98
2022-08-02T04:06:30.539Z,55.03
2022-08-02T04:08:58.273Z,55.35
2022-08-02T04:11:31.827Z,55.25
2022-08-02T04:14:00.773Z,55.18
2022-08-02T04:16:50.540Z,55.23
2022-08-02T04:19:41.791Z,55.10
2022-08-02T04:22:17.661Z,55.33
2022-08-02T04:24:50.232Z,55.27
2022-08-02T04:27:49.231Z,55.36
2022-08-02T04:30:07.072Z,55.15
2022-08-02T04:32:35.512Z,55.08
2022-08-02T04:35:19.930Z,55.28
2022-08-02T04:38:09.414Z,54.98
2022-08-02T04:40:36.473Z,54.77
2022-08-02T04:43:04.100Z,54.49
2022-08-02T04:45:31.908Z,53.98
2022-08-02T04:48:04.988Z,53.74
2022-08-02T04:50:33.779Z,54.12
2022-08-02T04:53:01.586Z,53.78
2022-08-02T04:55:29.827Z,53.53
2022-08-02T04:57:58.847Z,53.67
2022-08-02T05:00:28.530Z,53.55
2022-08-02T05:02:59.944Z,53.33
2022-08-02T05:05:27.572Z,53.20
2022-08-02T05:07:55.111Z,52.98
2022-08-02T05:10:22.675Z,52.42
2022-08-02T05:12:50.408Z,51.79
2022-08-02T05:15:18.623Z,51.71
2022-08-02T05:17:48.578Z,51.34
2022-08-02T05:20:18.246Z,51.99
2022-08-02T05:22:46.500Z,52.38
2022-08-02T05:25:13.920Z,51.56
2022-08-02T05:27:41.604Z,52.02
2022-08-02T05:30:09.439Z,51.81
2022-08-02T05:32:46.966Z,50.95
2022-08-02T05:35:17.710Z,51.25
2022-08-02T05:37:45.155Z,50.82
2022-08-02T05:40:16.798Z,50.60
2022-08-02T05:42:44.373Z,50.55
2022-08-02T05:45:11.887Z,50.05
2022-08-02T05:47:39.703Z,49.65
2022-08-02T05:50:09.059Z,48.57
2022-08-02T05:52:46.707Z,48.87
2022-08-02T05:55:19.336Z,48.85
2022-08-02T05:58:03.583Z,49.10
2022-08-02T06:00:32.288Z,48.96
2022-08-02T06:03:02.808Z,47.85
2022-08-02T06:05:34.557Z,47.86
2022-08-02T06:08:04.348Z,48.98
2022-08-02T06:10:36.549Z,48.00
2022-08-02T06:13:14.175Z,46.21
2022-08-02T06:15:53.233Z,46.66
2022-08-02T06:18:28.018Z,45.61
2022-08-02T06:22:31.689Z,47.34
2022-08-02T06:23:58.556Z,45.15
2022-08-02T06:26:28.245Z,44.68
2022-08-02T06:28:57.787Z,43.75
2022-08-02T06:31:25.548Z,42.70
2022-08-02T06:33:53.101Z,42.85
2022-08-02T06:36:39.499Z,42.66
2022-08-02T06:39:18.763Z,41.83
2022-08-02T06:41:48.295Z,42.26
2022-08-02T06:47:12.037Z,42.87
2022-08-02T06:49:52.265Z,40.15
2022-08-02T06:52:28.370Z,40.60
2022-08-02T06:55:01.173Z,39.85
2022-08-02T06:57:29.401Z,40.37
2022-08-02T06:59:56.825Z,40.88
2022-08-02T07:02:24.429Z,40.28
2022-08-02T07:04:52.171Z,39.38
2022-08-02T07:07:19.833Z,38.28
2022-08-02T07:09:56.310Z,38.27
2022-08-02T07:12:32.682Z,36.82
2022-08-02T07:15:00.356Z,37.21
2022-08-02T07:17:28.566Z,36.17
2022-08-02T07:19:56.764Z,36.78
2022-08-02T07:22:26.710Z,36.74
2022-08-02T07:24:58.866Z,35.30
2022-08-02T07:27:27.056Z,35.81
2022-08-02T07:29:54.944Z,35.75
2022-08-02T07:32:24.491Z,35.83
2022-08-02T07:34:54.178Z,35.08
2022-08-02T07:37:51.182Z,34.41
2022-08-02T07:40:14.743Z,34.75
2022-08-02T07:42:57.800Z,34.85
2022-08-02T07:45:27.772Z,34.67
2022-08-02T07:47:56.937Z,34.06
2022-08-02T07:50:24.748Z,35.16
2022-08-02T07:52:53.712Z,33.61
2022-08-02T07:55:39.628Z,33.30
2022-08-02T07:58:11.204Z,34.30
2022-08-02T08:00:43.143Z,33.64
2022-08-02T08:03:11.055Z,34.09
2022-08-02T08:05:38.391Z,33.13
2022-08-02T08:08:06.076Z,32.73
2022-08-02T08:10:33.771Z,33.16
2022-08-02T08:13:01.143Z,32.56
2022-08-02T08:15:28.526Z,32.48
2022-08-02T08:17:56.150Z,32.54
2022-08-02T08:20:23.611Z,32.52
2022-08-02T08:22:51.102Z,31.84
2022-08-02T08:25:18.931Z,31.56
2022-08-02T08:27:52.034Z,31.76
2022-08-02T08:30:20.768Z,31.82
2022-08-02T08:32:48.432Z,32.24
2022-08-02T08:35:16.196Z,33.79
2022-08-02T08:37:44.030Z,33.22
2022-08-02T08:40:12.291Z,32.65
2022-08-02T08:42:40.105Z,31.89
2022-08-02T08:45:09.021Z,31.11
2022-08-02T08:47:42.779Z,30.71
2022-08-02T08:50:25.922Z,31.08
2022-08-02T08:53:05.525Z,30.67
2022-08-02T08:55:34.509Z,30.03
2022-08-02T08:58:03.241Z,30.72
2022-08-02T09:00:32.508Z,30.57
2022-08-02T09:03:03.261Z,30.90
2022-08-02T09:05:30.911Z,29.01
2022-08-02T09:07:58.264Z,27.93
2022-08-02T09:10:34.091Z,28.27
2022-08-02T09:13:43.544Z,27.97
2022-08-02T09:16:11.729Z,28.48
2022-08-02T09:18:47.081Z,28.16
2022-08-02T09:21:16.784Z,28.07
2022-08-02T09:23:46.275Z,28.90
2022-08-02T09:26:15.544Z,27.54
2022-08-02T09:28:46.456Z,27.57
2022-08-02T09:31:16.069Z,27.33
2022-08-02T09:33:45.002Z,27.93
2022-08-02T09:36:16.582Z,27.36
2022-08-02T09:38:58.324Z,27.87
2022-08-02T09:41:27.979Z,27.13
2022-08-02T09:44:04.726Z,27.70
2022-08-02T09:46:45.028Z,27.30
2022-08-02T09:49:17.750Z,27.12
2022-08-02T09:51:45.335Z,27.41
2022-08-02T09:54:17.622Z,27.42
2022-08-02T09:56:53.284Z,27.75
2022-08-02T09:59:24.791Z,27.54
2022-08-02T10:02:01.245Z,27.14
2022-08-02T10:04:31.725Z,27.51
2022-08-02T10:07:03.640Z,27.44
2022-08-02T10:09:31.681Z,28.46
2022-08-02T10:12:00.163Z,29.17
2022-08-02T10:14:27.946Z,29.50
2022-08-02T10:16:56.982Z,30.10
2022-08-02T10:20:00.921Z,28.77
2022-08-02T10:22:14.683Z,30.26
2022-08-02T10:24:48.043Z,29.44
2022-08-02T10:27:20.937Z,30.62
2022-08-02T10:29:54.347Z,30.46
2022-08-02T10:32:32.776Z,30.05
2022-08-02T10:35:19.803Z,29.47
2022-08-02T10:38:04.643Z,29.01
2022-08-02T10:40:51.394Z,29.24
2022-08-02T10:43:31.192Z,28.93
2022-08-02T10:46:31.627Z,28.76
2022-08-02T10:49:37.384Z,28.49
2022-08-02T10:52:05.388Z,28.83
2022-08-02T10:54:36.233Z,28.60
2022-08-02T10:57:15.307Z,28.84
2022-08-02T10:59:43.561Z,28.98
2022-08-02T11:02:11.928Z,29.36
2022-08-02T11:04:39.280Z,29.10
2022-08-02T11:07:18.137Z,29.76
2022-08-02T11:09:47.599Z,29.94
2022-08-02T11:12:18.052Z,30.75
2022-08-02T11:14:58.612Z,30.50
2022-08-02T11:17:28.919Z,29.45
2022-08-02T11:20:08.578Z,29.81
2022-08-02T11:22:36.687Z,30.00
2022-08-02T11:25:24.266Z,30.24
2022-08-02T11:28:08.930Z,30.77
2022-08-02T11:30:37.132Z,30.77
2022-08-02T11:33:05.025Z,29.90
2022-08-02T11:35:34.721Z,31.24
2022-08-02T11:38:18.581Z,30.08
2022-08-02T11:40:47.065Z,30.35
2022-08-02T11:43:20.462Z,29.37
2022-08-02T11:45:50.131Z,29.45
2022-08-02T11:48:33.802Z,29.55
2022-08-02T11:51:04.082Z,29.02
2022-08-02T11:53:41.911Z,30.30
2022-08-02T11:56:10.771Z,30.94
2022-08-02T11:58:38.497Z,30.40
2022-08-02T12:01:09.434Z,30.25
2022-08-02T12:03:38.767Z,29.30
2022-08-02T12:06:16.429Z,29.58
2022-08-02T12:08:54.264Z,30.04
2022-08-02T12:11:22.456Z,30.38
2022-08-02T12:13:56.373Z,30.06
2022-08-02T12:16:43.776Z,30.22
2022-08-02T12:19:20.034Z,30.53
2022-08-02T12:21:47.504Z,30.54
2022-08-02T12:24:28.285Z,30.10
2022-08-02T12:26:56.941Z,30.06
2022-08-02T12:29:57.815Z,30.20
2022-08-02T12:32:25.174Z,30.31
2022-08-02T12:35:10.620Z,29.89
2022-08-02T12:37:42.802Z,29.96
2022-08-02T12:40:29.622Z,30.04
2022-08-02T12:43:07.961Z,29.90
2022-08-02T12:45:49.064Z,29.64
2022-08-02T12:48:36.707Z,27.63
2022-08-02T12:51:21.990Z,27.56
2022-08-02T12:53:58.940Z,27.63
2022-08-02T12:56:33.520Z,26.83
2022-08-02T12:59:00.914Z,27.23
2022-08-02T13:01:29.784Z,26.09
2022-08-02T13:04:09.058Z,26.39
2022-08-02T13:06:44.388Z,24.62
2022-08-02T13:09:17.110Z,24.95
2022-08-02T13:11:45.598Z,25.30
2022-08-02T13:14:14.134Z,25.54
2022-08-02T13:16:43.584Z,25.20
2022-08-02T13:19:11.300Z,24.66
2022-08-02T13:21:41.355Z,24.84
2022-08-02T13:24:38.219Z,25.38
2022-08-02T13:27:08.139Z,24.78
2022-08-02T13:29:37.888Z,25.42
2022-08-02T13:32:05.956Z,23.76
2022-08-02T13:34:33.361Z,24.50
2022-08-02T13:37:01.853Z,24.61
2022-08-02T13:39:29.495Z,24.56
2022-08-02T13:41:56.860Z,24.46
2022-08-02T13:44:24.437Z,25.84
2022-08-02T13:46:51.780Z,25.10
2022-08-02T13:49:20.321Z,25.24
2022-08-02T13:51:49.915Z,25.30
2022-08-02T13:54:17.502Z,25.43
2022-08-02T13:56:44.912Z,25.65
2022-08-02T13:59:54.328Z,25.29
2022-08-02T14:02:00.409Z,25.52
2022-08-02T14:04:29.620Z,25.19
2022-08-02T14:06:58.943Z,24.73
2022-08-02T14:09:26.869Z,25.44
2022-08-02T14:11:54.457Z,24.67
2022-08-02T14:14:21.772Z,24.95
2022-08-02T14:16:49.108Z,25.49
2022-08-02T14:19:17.531Z,25.47
2022-08-02T14:21:46.352Z,25.35
2022-08-02T14:24:20.269Z,25.99
2022-08-02T14:26:48.540Z,25.91
2022-08-02T14:29:16.511Z,26.01
2022-08-02T14:31:45.086Z,25.80
2022-08-02T14:34:13.667Z,25.58
2022-08-02T14:36:41.107Z,26.02
2022-08-02T14:39:08.486Z,26.37
2022-08-02T14:41:58.237Z,26.06
2022-08-02T14:44:24.734Z,25.56
2022-08-02T14:46:52.683Z,25.50
2022-08-02T14:49:25.334Z,25.66
2022-08-02T14:51:54.666Z,25.89
2022-08-02T14:54:27.790Z,25.53
2022-08-02T14:56:59.042Z,25.87
2022-08-02T14:59:26.895Z,25.94
2022-08-02T15:01:54.744Z,25.98
2022-08-02T15:04:22.389Z,25.47
2022-08-02T15:06:49.752Z,26.21
2022-08-02T15:09:17.137Z,25.94
2022-08-02T15:11:47.969Z,26.56
2022-08-02T15:14:25.733Z,26.01
2022-08-02T15:16:57.501Z,26.30
2022-08-02T15:19:30.280Z,26.40
2022-08-02T15:22:16.815Z,26.91
2022-08-02T15:24:46.654Z,26.82
2022-08-02T15:27:15.206Z,26.89
2022-08-02T15:29:43.619Z,26.15
2022-08-02T15:32:11.861Z,26.53
2022-08-02T15:34:40.319Z,26.59
2022-08-02T15:37:07.724Z,26.48
2022-08-02T15:39:35.211Z,26.84
2022-08-02T15:42:03.149Z,26.79
2022-08-02T15:44:30.627Z,27.10
2022-08-02T15:46:58.040Z,26.54
2022-08-02T15:49:26.408Z,26.38
2022-08-02T15:51:54.379Z,25.77
2022-08-02T15:54:21.730Z,26.20
2022-08-02T15:56:49.766Z,26.53
2022-08-02T15:59:17.464Z,26.41
2022-08-02T16:01:47.848Z,25.91
2022-08-02T16:04:16.729Z,25.96
2022-08-02T16:06:44.114Z,26.18
2022-08-02T16:09:11.498Z,25.88
2022-08-02T16:11:39.244Z,25.94
2022-08-02T16:14:06.985Z,25.69
2022-08-02T16:16:35.647Z,26.16
2022-08-02T16:19:47.082Z,25.49
2022-08-02T16:21:53.487Z,26.20
2022-08-02T16:24:21.309Z,25.44
2022-08-02T16:26:49.054Z,25.96
2022-08-02T16:29:18.882Z,26.25
2022-08-02T16:31:47.930Z,26.06
2022-08-02T16:34:16.703Z,26.61
2022-08-02T16:36:44.611Z,26.51
2022-08-02T16:39:12.209Z,26.54
2022-08-02T16:41:51.925Z,26.60
2022-08-02T16:44:29.730Z,26.13
2022-08-02T16:47:00.563Z,25.85
2022-08-02T16:50:05.873Z,25.69
2022-08-02T16:52:33.654Z,26.59
2022-08-02T16:55:01.283Z,25.66
2022-08-02T16:57:42.681Z,25.92
2022-08-02T17:00:13.991Z,26.09
2022-08-02T17:02:43.242Z,26.01
2022-08-02T17:05:14.435Z,26.19
2022-08-02T17:08:07.352Z,26.62
2022-08-02T17:10:31.156Z,26.97
2022-08-02T17:13:11.560Z,27.06
2022-08-02T17:16:07.395Z,27.48
2022-08-02T17:18:29.310Z,27.09
2022-08-02T17:20:56.895Z,27.16
2022-08-02T17:24:04.291Z,26.77
2022-08-02T17:26:13.168Z,27.44
2022-08-02T17:29:03.701Z,27.74
2022-08-02T17:31:30.117Z,27.66
2022-08-02T17:34:04.928Z,27.66
2022-08-02T17:36:32.970Z,27.17
2022-08-02T17:39:00.315Z,27.96
2022-08-02T17:41:37.696Z,27.71
2022-08-02T17:44:08.604Z,27.21
2022-08-02T17:46:37.179Z,27.39
2022-08-02T17:49:16.995Z,27.21
2022-08-02T17:52:48.372Z,27.50
2022-08-02T17:54:33.351Z,26.90
2022-08-02T17:57:00.951Z,26.80
2022-08-02T17:59:30.762Z,26.82
2022-08-02T18:02:09.380Z,26.72
2022-08-02T18:04:39.025Z,26.41
2022-08-02T18:07:09.459Z,26.75
2022-08-02T18:09:39.540Z,26.82
2022-08-02T18:12:15.344Z,26.20
2022-08-02T18:17:33.915Z,26.60
2022-08-02T18:20:08.583Z,26.80
2022-08-02T18:22:39.786Z,26.95
2022-08-02T18:25:10.364Z,26.89
2022-08-02T18:27:46.109Z,27.06
2022-08-02T18:30:17.666Z,27.22
2022-08-02T18:33:59.778Z,27.71
2022-08-02T18:35:43.495Z,27.88
2022-08-02T18:38:11.766Z,28.09
2022-08-02T18:40:39.387Z,28.25
2022-08-02T18:43:07.658Z,28.42
2022-08-02T18:45:36.878Z,28.55
2022-08-02T18:48:23.047Z,28.70
2022-08-02T18:50:53.770Z,30.53
2022-08-02T18:53:39.121Z,31.97
2022-08-02T18:56:20.262Z,32.26
2022-08-02T18:59:02.932Z,30.89
2022-08-02T19:01:32.257Z,30.22
2022-08-02T19:04:02.460Z,30.09
2022-08-02T19:06:30.577Z,30.14
2022-08-02T19:09:06.017Z,30.29
2022-08-02T19:11:48.177Z,30.64
2022-08-02T19:14:24.049Z,30.93
2022-08-02T19:16:56.305Z,30.99
2022-08-02T19:19:28.750Z,31.25
2022-08-02T19:22:16.339Z,31.43
2022-08-02T19:24:47.067Z,31.62
2022-08-02T19:27:15.466Z,31.81
2022-08-02T19:29:50.827Z,31.89
2022-08-02T19:32:42.298Z,31.86
2022-08-02T19:35:19.488Z,32.07
2022-08-02T19:37:59.259Z,32.22
2022-08-02T19:40:28.774Z,32.42
2022-08-02T19:44:26.589Z,32.70
2022-08-02T19:45:49.867Z,32.70
2022-08-02T19:48:24.414Z,32.73
2022-08-02T19:50:55.934Z,33.05
2022-08-02T19:53:28.973Z,33.18
2022-08-02T19:56:21.101Z,33.33
2022-08-02T19:58:51.369Z,33.61
2022-08-02T20:01:25.284Z,33.43
2022-08-02T20:03:56.159Z,33.35
2022-08-02T20:06:29.762Z,33.34
2022-08-02T20:09:01.312Z,33.31
2022-08-02T20:11:34.411Z,33.50
2022-08-02T20:14:04.704Z,33.80
2022-08-02T20:16:33.348Z,34.20
2022-08-02T20:19:02.763Z,33.98
2022-08-02T20:21:36.546Z,34.07
2022-08-02T20:24:06.429Z,34.39
2022-08-02T20:26:35.211Z,34.67
2022-08-02T20:29:04.110Z,34.51
2022-08-02T20:31:31.525Z,34.38
2022-08-02T20:33:59.141Z,34.64
2022-08-02T20:36:27.227Z,34.71
2022-08-02T20:38:55.283Z,34.84
2022-08-02T20:41:23.728Z,35.31
2022-08-02T20:44:04.876Z,35.61
2022-08-02T20:46:44.150Z,35.81
2022-08-02T20:49:23.125Z,35.94
2022-08-02T20:51:53.921Z,35.92
2022-08-02T20:54:21.931Z,35.76
2022-08-02T20:56:50.571Z,35.70
2022-08-02T20:59:21.097Z,35.76
2022-08-02T21:01:56.787Z,35.75
2022-08-02T21:04:26.340Z,35.70
2022-08-02T21:06:55.782Z,35.90
2022-08-02T21:09:52.497Z,36.37
2022-08-02T21:12:12.628Z,36.56
2022-08-02T21:14:41.956Z,36.87
2022-08-02T21:17:11.086Z,36.66
2022-08-02T21:19:44.140Z,36.84
2022-08-02T21:22:12.125Z,36.69
2022-08-02T21:24:39.877Z,36.84
2022-08-02T21:27:51.984Z,37.03
2022-08-02T21:29:55.063Z,37.09
2022-08-02T21:32:22.454Z,37.24
2022-08-02T21:34:49.843Z,38.31
2022-08-02T21:37:17.459Z,38.55
2022-08-02T21:39:44.847Z,38.57
2022-08-02T21:42:22.585Z,38.75
2022-08-02T21:44:51.065Z,38.64
2022-08-02T21:47:27.339Z,38.91
2022-08-02T21:50:10.080Z,39.14
2022-08-02T21:52:42.324Z,39.11
2022-08-02T21:55:24.233Z,39.53
2022-08-02T21:58:07.645Z,39.59
2022-08-02T22:00:34.985Z,39.49
2022-08-02T22:03:22.960Z,39.89
2022-08-02T22:05:50.180Z,40.61
2022-08-02T22:08:19.365Z,40.91
2022-08-02T22:11:03.148Z,40.73
2022-08-02T22:13:38.839Z,40.83
2022-08-02T22:16:20.632Z,40.65
2022-08-02T22:18:52.661Z,40.88
2022-08-02T22:21:22.865Z,40.47
2022-08-02T22:23:52.068Z,40.34
2022-08-02T22:26:20.511Z,40.10
2022-08-02T22:28:50.456Z,40.18
2022-08-02T22:31:19.558Z,39.99
2022-08-02T22:34:11.785Z,40.43
2022-08-02T22:36:55.299Z,40.46
2022-08-02T22:39:22.720Z,40.56
2022-08-02T22:44:37.752Z,40.85
2022-08-02T22:47:14.637Z,40.99
2022-08-02T22:49:44.558Z,40.90
2022-08-02T22:52:21.098Z,41.12
2022-08-02T22:54:48.900Z,41.37
2022-08-02T22:57:30.471Z,41.32
2022-08-02T22:58:43.502Z,26.45
2022-08-02T23:00:10.071Z,41.51
2022-08-02T23:02:37.836Z,41.45
2022-08-02T23:05:06.318Z,41.86
2022-08-02T23:07:38.546Z,42.19
2022-08-02T23:10:07.918Z,42.30
2022-08-02T23:12:35.323Z,42.23
2022-08-02T23:15:02.977Z,42.49
2022-08-02T23:17:49.086Z,42.50
2022-08-02T23:20:20.476Z,42.72
2022-08-02T23:22:48.105Z,42.95
2022-08-02T23:25:15.437Z,43.03
2022-08-02T23:27:50.274Z,42.93
2022-08-02T23:30:19.275Z,43.75
2022-08-02T23:32:46.849Z,43.72
2022-08-02T23:35:17.219Z,43.81
2022-08-02T23:37:59.666Z,44.05
2022-08-02T23:40:40.538Z,44.23
2022-08-02T23:43:13.510Z,44.30
2022-08-02T23:45:44.534Z,44.41
2022-08-02T23:48:12.191Z,44.64
2022-08-02T23:50:39.652Z,44.70
2022-08-02T23:53:06.993Z,44.77
2022-08-02T23:55:34.609Z,44.97
2022-08-02T23:58:01.905Z,45.00
